sensor_id;sensor_type;location;lat;lon;timestamp;temperature;humidity
8261;DHT22;64115;50.170;8.242;2024-03-17T00:02:11;3.80;99.90
8261;DHT22;64115;50.170;8.242;2024-03-17T00:04:37;3.70;99.90
8261;DHT22;64115;50.170;8.242;2024-03-17T00:07:05;3.80;99.90
8261;DHT22;64115;50.170;8.242;2024-03-17T00:09:31;3.70;99.90
8261;DHT22;64115;50.170;8.242;2024-03-17T00:11:57;3.80;99.90
8261;DHT22;64115;50.170;8.242;2024-03-17T00:14:25;3.80;99.90
8261;DHT22;64115;50.170;8.242;2024-03-17T00:16:52;3.80;99.90
8261;DHT22;64115;50.170;8.242;2024-03-17T00:19:20;3.80;99.90
8261;DHT22;64115;50.170;8.242;2024-03-17T00:21:47;3.90;99.90
8261;DHT22;64115;50.170;8.242;2024-03-17T00:24:14;3.90;99.90
8261;DHT22;64115;50.170;8.242;2024-03-17T00:26:41;4.00;99.90
8261;DHT22;64115;50.170;8.242;2024-03-17T00:29:07;4.00;99.90
8261;DHT22;64115;50.170;8.242;2024-03-17T00:31:34;4.00;99.90
8261;DHT22;64115;50.170;8.242;2024-03-17T00:34:00;4.00;99.90
8261;DHT22;64115;50.170;8.242;2024-03-17T00:36:26;4.00;99.90
8261;DHT22;64115;50.170;8.242;2024-03-17T00:38:53;4.10;99.90
8261;DHT22;64115;50.170;8.242;2024-03-17T00:41:20;4.10;99.90
8261;DHT22;64115;50.170;8.242;2024-03-17T00:43:47;4.10;99.90
8261;DHT22;64115;50.170;8.242;2024-03-17T00:46:13;4.10;99.90
8261;DHT22;64115;50.170;8.242;2024-03-17T00:48:40;4.20;99.90
8261;DHT22;64115;50.170;8.242;2024-03-17T00:51:06;4.20;99.90
8261;DHT22;64115;50.170;8.242;2024-03-17T00:53:32;4.10;99.90
8261;DHT22;64115;50.170;8.242;2024-03-17T00:55:58;4.10;99.90
8261;DHT22;64115;50.170;8.242;2024-03-17T00:58:27;4.10;99.90
8261;DHT22;64115;50.170;8.242;2024-03-17T01:00:54;4.10;99.90
8261;DHT22;64115;50.170;8.242;2024-03-17T01:03:21;4.10;99.90
8261;DHT22;64115;50.170;8.242;2024-03-17T01:05:47;4.10;99.90
8261;DHT22;64115;50.170;8.242;2024-03-17T01:08:18;4.00;99.90
8261;DHT22;64115;50.170;8.242;2024-03-17T01:10:44;4.00;99.90
8261;DHT22;64115;50.170;8.242;2024-03-17T01:13:13;4.00;99.90
8261;DHT22;64115;50.170;8.242;2024-03-17T01:15:40;3.90;99.90
8261;DHT22;64115;50.170;8.242;2024-03-17T01:18:07;3.90;99.90
8261;DHT22;64115;50.170;8.242;2024-03-17T01:20:35;3.90;99.90
8261;DHT22;64115;50.170;8.242;2024-03-17T01:23:03;3.80;99.90
8261;DHT22;64115;50.170;8.242;2024-03-17T01:25:28;3.80;99.90
8261;DHT22;64115;50.170;8.242;2024-03-17T01:27:56;3.80;99.90
8261;DHT22;64115;50.170;8.242;2024-03-17T01:30:22;3.80;99.90
8261;DHT22;64115;50.170;8.242;2024-03-17T01:32:51;3.80;99.90
8261;DHT22;64115;50.170;8.242;2024-03-17T01:35:17;3.80;99.90
8261;DHT22;64115;50.170;8.242;2024-03-17T01:37:44;3.70;99.90
8261;DHT22;64115;50.170;8.242;2024-03-17T01:40:10;3.70;99.90
8261;DHT22;64115;50.170;8.242;2024-03-17T01:42:38;3.70;99.90
8261;DHT22;64115;50.170;8.242;2024-03-17T01:45:20;3.70;99.90
8261;DHT22;64115;50.170;8.242;2024-03-17T01:47:51;3.70;99.90
8261;DHT22;64115;50.170;8.242;2024-03-17T01:50:17;3.60;99.90
8261;DHT22;64115;50.170;8.242;2024-03-17T01:52:51;3.60;99.90
8261;DHT22;64115;50.170;8.242;2024-03-17T01:55:17;3.50;99.90
8261;DHT22;64115;50.170;8.242;2024-03-17T01:57:44;3.50;99.90
8261;DHT22;64115;50.170;8.242;2024-03-17T02:00:11;3.50;99.90
8261;DHT22;64115;50.170;8.242;2024-03-17T02:02:37;3.60;99.90
8261;DHT22;64115;50.170;8.242;2024-03-17T02:05:06;3.60;99.90
8261;DHT22;64115;50.170;8.242;2024-03-17T02:07:32;3.50;99.90
8261;DHT22;64115;50.170;8.242;2024-03-17T02:09:58;3.50;99.90
8261;DHT22;64115;50.170;8.242;2024-03-17T02:12:25;3.50;99.90
8261;DHT22;64115;50.170;8.242;2024-03-17T02:14:51;3.60;99.90
8261;DHT22;64115;50.170;8.242;2024-03-17T02:17:18;3.60;99.90
8261;DHT22;64115;50.170;8.242;2024-03-17T02:19:44;3.60;99.90
8261;DHT22;64115;50.170;8.242;2024-03-17T02:22:13;3.50;99.90
8261;DHT22;64115;50.170;8.242;2024-03-17T02:24:39;3.50;99.90
8261;DHT22;64115;50.170;8.242;2024-03-17T02:27:06;3.60;99.90
8261;DHT22;64115;50.170;8.242;2024-03-17T02:29:32;3.60;99.90
8261;DHT22;64115;50.170;8.242;2024-03-17T02:31:59;3.60;99.90
8261;DHT22;64115;50.170;8.242;2024-03-17T02:34:24;3.60;99.90
8261;DHT22;64115;50.170;8.242;2024-03-17T02:36:51;3.70;99.90
8261;DHT22;64115;50.170;8.242;2024-03-17T02:39:18;3.70;99.90
8261;DHT22;64115;50.170;8.242;2024-03-17T02:42:11;3.70;99.90
8261;DHT22;64115;50.170;8.242;2024-03-17T02:44:38;3.80;99.90
8261;DHT22;64115;50.170;8.242;2024-03-17T02:47:07;3.70;99.90
8261;DHT22;64115;50.170;8.242;2024-03-17T02:49:36;3.70;99.90
8261;DHT22;64115;50.170;8.242;2024-03-17T02:52:06;3.70;99.90
8261;DHT22;64115;50.170;8.242;2024-03-17T02:54:34;3.60;99.90
8261;DHT22;64115;50.170;8.242;2024-03-17T02:57:01;3.50;99.90
8261;DHT22;64115;50.170;8.242;2024-03-17T02:59:27;3.60;99.90
8261;DHT22;64115;50.170;8.242;2024-03-17T03:01:54;3.60;99.90
8261;DHT22;64115;50.170;8.242;2024-03-17T03:04:21;3.70;99.90
8261;DHT22;64115;50.170;8.242;2024-03-17T03:06:48;3.80;99.90
8261;DHT22;64115;50.170;8.242;2024-03-17T03:09:14;3.70;99.90
8261;DHT22;64115;50.170;8.242;2024-03-17T03:11:47;3.60;99.90
8261;DHT22;64115;50.170;8.242;2024-03-17T03:14:14;3.60;99.90
8261;DHT22;64115;50.170;8.242;2024-03-17T03:16:41;3.60;99.90
8261;DHT22;64115;50.170;8.242;2024-03-17T03:19:07;3.60;99.90
8261;DHT22;64115;50.170;8.242;2024-03-17T03:21:34;3.60;99.90
8261;DHT22;64115;50.170;8.242;2024-03-17T03:24:01;3.60;99.90
8261;DHT22;64115;50.170;8.242;2024-03-17T03:26:28;3.70;99.90
8261;DHT22;64115;50.170;8.242;2024-03-17T03:28:56;3.70;99.90
8261;DHT22;64115;50.170;8.242;2024-03-17T03:31:23;3.80;99.90
8261;DHT22;64115;50.170;8.242;2024-03-17T03:33:49;3.80;99.90
8261;DHT22;64115;50.170;8.242;2024-03-17T03:36:16;3.90;99.90
8261;DHT22;64115;50.170;8.242;2024-03-17T03:38:43;3.90;99.90
8261;DHT22;64115;50.170;8.242;2024-03-17T03:41:13;3.90;99.90
8261;DHT22;64115;50.170;8.242;2024-03-17T03:43:40;3.80;99.90
8261;DHT22;64115;50.170;8.242;2024-03-17T03:46:08;3.80;99.90
8261;DHT22;64115;50.170;8.242;2024-03-17T03:48:35;3.70;99.90
8261;DHT22;64115;50.170;8.242;2024-03-17T03:51:05;3.70;99.90
8261;DHT22;64115;50.170;8.242;2024-03-17T03:53:32;3.70;99.90
8261;DHT22;64115;50.170;8.242;2024-03-17T03:56:00;3.60;99.90
8261;DHT22;64115;50.170;8.242;2024-03-17T03:58:27;3.60;99.90
8261;DHT22;64115;50.170;8.242;2024-03-17T04:00:54;3.50;99.90
8261;DHT22;64115;50.170;8.242;2024-03-17T04:03:23;3.50;99.90
8261;DHT22;64115;50.170;8.242;2024-03-17T04:05:50;3.50;99.90
8261;DHT22;64115;50.170;8.242;2024-03-17T04:08:19;3.40;99.90
8261;DHT22;64115;50.170;8.242;2024-03-17T04:10:48;3.50;99.90
8261;DHT22;64115;50.170;8.242;2024-03-17T04:13:14;3.60;99.90
8261;DHT22;64115;50.170;8.242;2024-03-17T04:15:41;3.60;99.90
8261;DHT22;64115;50.170;8.242;2024-03-17T04:18:08;3.50;99.90
8261;DHT22;64115;50.170;8.242;2024-03-17T04:20:36;3.60;99.90
8261;DHT22;64115;50.170;8.242;2024-03-17T04:23:03;3.60;99.90
8261;DHT22;64115;50.170;8.242;2024-03-17T04:25:31;3.60;99.90
8261;DHT22;64115;50.170;8.242;2024-03-17T04:27:58;3.60;99.90
8261;DHT22;64115;50.170;8.242;2024-03-17T04:30:24;3.70;99.90
8261;DHT22;64115;50.170;8.242;2024-03-17T04:32:51;3.80;99.90
8261;DHT22;64115;50.170;8.242;2024-03-17T04:35:18;3.90;99.90
8261;DHT22;64115;50.170;8.242;2024-03-17T04:37:46;3.90;99.90
8261;DHT22;64115;50.170;8.242;2024-03-17T04:40:13;3.90;99.90
8261;DHT22;64115;50.170;8.242;2024-03-17T04:42:40;3.90;99.90
8261;DHT22;64115;50.170;8.242;2024-03-17T04:45:08;4.00;99.90
8261;DHT22;64115;50.170;8.242;2024-03-17T04:47:36;3.90;99.90
8261;DHT22;64115;50.170;8.242;2024-03-17T04:50:04;4.00;99.90
8261;DHT22;64115;50.170;8.242;2024-03-17T04:52:30;4.00;99.90
8261;DHT22;64115;50.170;8.242;2024-03-17T04:54:59;4.00;99.90
8261;DHT22;64115;50.170;8.242;2024-03-17T04:57:25;4.00;99.90
8261;DHT22;64115;50.170;8.242;2024-03-17T04:59:52;4.00;99.90
8261;DHT22;64115;50.170;8.242;2024-03-17T05:02:19;4.00;99.90
8261;DHT22;64115;50.170;8.242;2024-03-17T05:04:47;4.00;99.90
8261;DHT22;64115;50.170;8.242;2024-03-17T05:07:13;3.90;99.90
8261;DHT22;64115;50.170;8.242;2024-03-17T05:09:40;3.90;99.90
8261;DHT22;64115;50.170;8.242;2024-03-17T05:12:10;4.00;99.90
8261;DHT22;64115;50.170;8.242;2024-03-17T05:14:37;4.10;99.90
8261;DHT22;64115;50.170;8.242;2024-03-17T05:17:04;4.10;99.90
8261;DHT22;64115;50.170;8.242;2024-03-17T05:19:31;4.10;99.90
8261;DHT22;64115;50.170;8.242;2024-03-17T05:21:58;4.10;99.90
8261;DHT22;64115;50.170;8.242;2024-03-17T05:24:25;4.10;99.90
8261;DHT22;64115;50.170;8.242;2024-03-17T05:26:52;4.10;99.90
8261;DHT22;64115;50.170;8.242;2024-03-17T05:29:20;4.10;99.90
8261;DHT22;64115;50.170;8.242;2024-03-17T05:31:48;4.10;99.90
8261;DHT22;64115;50.170;8.242;2024-03-17T05:34:14;4.10;99.90
8261;DHT22;64115;50.170;8.242;2024-03-17T05:36:41;4.10;99.90
8261;DHT22;64115;50.170;8.242;2024-03-17T05:39:08;4.20;99.90
8261;DHT22;64115;50.170;8.242;2024-03-17T05:41:35;4.20;99.90
8261;DHT22;64115;50.170;8.242;2024-03-17T05:44:02;4.20;99.90
8261;DHT22;64115;50.170;8.242;2024-03-17T05:46:30;4.30;99.90
8261;DHT22;64115;50.170;8.242;2024-03-17T05:48:57;4.30;99.90
8261;DHT22;64115;50.170;8.242;2024-03-17T05:51:23;4.30;99.90
8261;DHT22;64115;50.170;8.242;2024-03-17T05:53:53;4.30;99.90
8261;DHT22;64115;50.170;8.242;2024-03-17T05:56:21;4.40;99.90
8261;DHT22;64115;50.170;8.242;2024-03-17T05:58:48;4.30;99.90
8261;DHT22;64115;50.170;8.242;2024-03-17T06:01:15;4.40;99.90
8261;DHT22;64115;50.170;8.242;2024-03-17T06:03:43;4.40;99.90
8261;DHT22;64115;50.170;8.242;2024-03-17T06:06:10;4.50;99.90
8261;DHT22;64115;50.170;8.242;2024-03-17T06:08:37;4.60;99.90
8261;DHT22;64115;50.170;8.242;2024-03-17T06:11:05;4.70;99.90
8261;DHT22;64115;50.170;8.242;2024-03-17T06:13:32;4.70;99.90
8261;DHT22;64115;50.170;8.242;2024-03-17T06:16:01;4.60;99.90
8261;DHT22;64115;50.170;8.242;2024-03-17T06:18:28;4.60;99.90
8261;DHT22;64115;50.170;8.242;2024-03-17T06:20:56;4.50;99.90
8261;DHT22;64115;50.170;8.242;2024-03-17T06:23:24;4.50;99.90
8261;DHT22;64115;50.170;8.242;2024-03-17T06:25:52;4.60;99.90
8261;DHT22;64115;50.170;8.242;2024-03-17T06:28:19;4.50;99.90
8261;DHT22;64115;50.170;8.242;2024-03-17T06:30:54;4.50;99.90
8261;DHT22;64115;50.170;8.242;2024-03-17T06:33:21;4.60;99.90
8261;DHT22;64115;50.170;8.242;2024-03-17T06:35:48;4.60;99.90
8261;DHT22;64115;50.170;8.242;2024-03-17T06:38:16;4.60;99.90
8261;DHT22;64115;50.170;8.242;2024-03-17T06:40:48;4.60;99.90
8261;DHT22;64115;50.170;8.242;2024-03-17T06:43:15;4.50;99.90
8261;DHT22;64115;50.170;8.242;2024-03-17T06:45:42;4.50;99.90
8261;DHT22;64115;50.170;8.242;2024-03-17T06:48:09;4.50;99.90
8261;DHT22;64115;50.170;8.242;2024-03-17T06:50:38;4.50;99.90
8261;DHT22;64115;50.170;8.242;2024-03-17T06:53:06;4.60;99.90
8261;DHT22;64115;50.170;8.242;2024-03-17T06:55:35;4.60;99.90
8261;DHT22;64115;50.170;8.242;2024-03-17T06:58:02;4.50;99.90
8261;DHT22;64115;50.170;8.242;2024-03-17T07:00:29;4.50;99.90
8261;DHT22;64115;50.170;8.242;2024-03-17T07:02:56;4.60;99.90
8261;DHT22;64115;50.170;8.242;2024-03-17T07:05:23;4.80;99.90
8261;DHT22;64115;50.170;8.242;2024-03-17T07:07:50;5.00;99.90
8261;DHT22;64115;50.170;8.242;2024-03-17T07:10:17;5.20;99.90
8261;DHT22;64115;50.170;8.242;2024-03-17T07:12:45;5.40;99.90
8261;DHT22;64115;50.170;8.242;2024-03-17T07:15:12;5.60;99.90
8261;DHT22;64115;50.170;8.242;2024-03-17T07:17:39;5.70;99.90
8261;DHT22;64115;50.170;8.242;2024-03-17T07:20:07;5.80;99.90
8261;DHT22;64115;50.170;8.242;2024-03-17T07:22:34;5.90;99.90
8261;DHT22;64115;50.170;8.242;2024-03-17T07:25:01;6.00;99.90
8261;DHT22;64115;50.170;8.242;2024-03-17T07:27:28;6.10;99.90
8261;DHT22;64115;50.170;8.242;2024-03-17T07:29:56;6.00;99.90
8261;DHT22;64115;50.170;8.242;2024-03-17T07:32:23;6.00;99.90
8261;DHT22;64115;50.170;8.242;2024-03-17T07:34:50;6.00;99.90
8261;DHT22;64115;50.170;8.242;2024-03-17T07:37:17;5.90;99.90
8261;DHT22;64115;50.170;8.242;2024-03-17T07:39:43;6.00;99.90
8261;DHT22;64115;50.170;8.242;2024-03-17T07:42:13;6.10;99.90
8261;DHT22;64115;50.170;8.242;2024-03-17T07:44:43;6.30;99.90
8261;DHT22;64115;50.170;8.242;2024-03-17T07:47:11;6.50;99.90
8261;DHT22;64115;50.170;8.242;2024-03-17T07:49:38;6.70;99.90
8261;DHT22;64115;50.170;8.242;2024-03-17T07:52:05;6.90;99.90
8261;DHT22;64115;50.170;8.242;2024-03-17T07:54:32;7.00;99.90
8261;DHT22;64115;50.170;8.242;2024-03-17T07:57:00;7.10;99.90
8261;DHT22;64115;50.170;8.242;2024-03-17T07:59:27;7.30;99.90
8261;DHT22;64115;50.170;8.242;2024-03-17T08:01:54;7.40;99.90
8261;DHT22;64115;50.170;8.242;2024-03-17T08:04:23;7.40;99.90
8261;DHT22;64115;50.170;8.242;2024-03-17T08:06:50;7.40;99.90
8261;DHT22;64115;50.170;8.242;2024-03-17T08:09:17;7.40;99.90
8261;DHT22;64115;50.170;8.242;2024-03-17T08:11:44;7.50;99.90
8261;DHT22;64115;50.170;8.242;2024-03-17T08:14:12;7.50;99.90
8261;DHT22;64115;50.170;8.242;2024-03-17T08:16:40;7.60;99.90
8261;DHT22;64115;50.170;8.242;2024-03-17T08:19:07;7.60;99.90
8261;DHT22;64115;50.170;8.242;2024-03-17T08:21:35;7.60;99.90
8261;DHT22;64115;50.170;8.242;2024-03-17T08:24:02;7.90;99.90
8261;DHT22;64115;50.170;8.242;2024-03-17T08:26:29;8.00;99.90
8261;DHT22;64115;50.170;8.242;2024-03-17T08:28:56;8.20;99.90
8261;DHT22;64115;50.170;8.242;2024-03-17T08:31:23;8.20;99.90
8261;DHT22;64115;50.170;8.242;2024-03-17T08:33:50;8.30;99.90
8261;DHT22;64115;50.170;8.242;2024-03-17T08:36:18;8.30;99.90
8261;DHT22;64115;50.170;8.242;2024-03-17T08:38:47;8.30;99.90
8261;DHT22;64115;50.170;8.242;2024-03-17T08:41:14;8.50;99.90
8261;DHT22;64115;50.170;8.242;2024-03-17T08:43:41;8.50;99.90
8261;DHT22;64115;50.170;8.242;2024-03-17T08:46:09;8.70;99.90
8261;DHT22;64115;50.170;8.242;2024-03-17T08:48:40;8.70;99.90
8261;DHT22;64115;50.170;8.242;2024-03-17T08:51:08;8.70;99.90
8261;DHT22;64115;50.170;8.242;2024-03-17T08:53:35;8.80;99.90
8261;DHT22;64115;50.170;8.242;2024-03-17T08:56:05;8.80;99.90
8261;DHT22;64115;50.170;8.242;2024-03-17T08:58:32;8.70;99.90
8261;DHT22;64115;50.170;8.242;2024-03-17T09:01:03;8.70;99.90
8261;DHT22;64115;50.170;8.242;2024-03-17T09:03:29;8.70;99.90
8261;DHT22;64115;50.170;8.242;2024-03-17T09:05:56;8.30;99.90
8261;DHT22;64115;50.170;8.242;2024-03-17T09:08:24;8.50;99.90
8261;DHT22;64115;50.170;8.242;2024-03-17T09:10:53;8.50;99.90
8261;DHT22;64115;50.170;8.242;2024-03-17T09:13:23;8.50;99.90
8261;DHT22;64115;50.170;8.242;2024-03-17T09:15:51;8.70;99.90
8261;DHT22;64115;50.170;8.242;2024-03-17T09:18:17;8.80;99.90
8261;DHT22;64115;50.170;8.242;2024-03-17T09:20:44;8.80;99.90
8261;DHT22;64115;50.170;8.242;2024-03-17T09:23:12;8.80;99.90
8261;DHT22;64115;50.170;8.242;2024-03-17T09:25:39;8.90;99.90
8261;DHT22;64115;50.170;8.242;2024-03-17T09:28:06;8.90;99.90
8261;DHT22;64115;50.170;8.242;2024-03-17T09:30:34;9.10;99.90
8261;DHT22;64115;50.170;8.242;2024-03-17T09:33:01;9.20;99.90
8261;DHT22;64115;50.170;8.242;2024-03-17T09:35:30;9.30;99.90
8261;DHT22;64115;50.170;8.242;2024-03-17T09:37:56;9.50;99.90
8261;DHT22;64115;50.170;8.242;2024-03-17T09:40:23;9.70;99.90
8261;DHT22;64115;50.170;8.242;2024-03-17T09:42:50;9.70;99.90
8261;DHT22;64115;50.170;8.242;2024-03-17T09:45:18;9.70;99.90
8261;DHT22;64115;50.170;8.242;2024-03-17T09:47:47;9.40;99.90
8261;DHT22;64115;50.170;8.242;2024-03-17T09:50:14;9.10;99.90
8261;DHT22;64115;50.170;8.242;2024-03-17T09:52:42;9.00;99.90
8261;DHT22;64115;50.170;8.242;2024-03-17T09:55:15;8.90;99.90
8261;DHT22;64115;50.170;8.242;2024-03-17T09:57:42;9.00;99.90
8261;DHT22;64115;50.170;8.242;2024-03-17T10:00:10;9.20;99.90
8261;DHT22;64115;50.170;8.242;2024-03-17T10:02:42;9.60;99.90
8261;DHT22;64115;50.170;8.242;2024-03-17T10:05:21;9.90;99.90
8261;DHT22;64115;50.170;8.242;2024-03-17T10:07:49;10.00;99.90
8261;DHT22;64115;50.170;8.242;2024-03-17T10:10:16;10.20;99.90
8261;DHT22;64115;50.170;8.242;2024-03-17T10:12:43;10.30;99.90
8261;DHT22;64115;50.170;8.242;2024-03-17T10:15:11;10.30;99.90
8261;DHT22;64115;50.170;8.242;2024-03-17T10:17:38;10.30;99.90
8261;DHT22;64115;50.170;8.242;2024-03-17T10:20:12;10.30;99.90
8261;DHT22;64115;50.170;8.242;2024-03-17T10:23:00;10.30;99.90
8261;DHT22;64115;50.170;8.242;2024-03-17T10:25:28;10.20;99.90
8261;DHT22;64115;50.170;8.242;2024-03-17T10:27:56;10.20;99.90
8261;DHT22;64115;50.170;8.242;2024-03-17T10:30:24;10.50;99.90
8261;DHT22;64115;50.170;8.242;2024-03-17T10:32:58;10.60;99.90
8261;DHT22;64115;50.170;8.242;2024-03-17T10:35:30;10.50;99.90
8261;DHT22;64115;50.170;8.242;2024-03-17T10:38:00;10.50;99.90
8261;DHT22;64115;50.170;8.242;2024-03-17T10:40:28;10.50;99.90
8261;DHT22;64115;50.170;8.242;2024-03-17T10:42:57;10.40;99.90
8261;DHT22;64115;50.170;8.242;2024-03-17T10:47:52;10.30;99.90
8261;DHT22;64115;50.170;8.242;2024-03-17T10:50:22;10.40;99.90
8261;DHT22;64115;50.170;8.242;2024-03-17T10:52:50;10.30;99.90
8261;DHT22;64115;50.170;8.242;2024-03-17T10:55:24;10.40;99.90
8261;DHT22;64115;50.170;8.242;2024-03-17T10:57:54;10.60;99.90
8261;DHT22;64115;50.170;8.242;2024-03-17T11:00:23;10.50;99.90
8261;DHT22;64115;50.170;8.242;2024-03-17T11:02:53;10.50;99.90
8261;DHT22;64115;50.170;8.242;2024-03-17T11:05:28;10.50;99.90
8261;DHT22;64115;50.170;8.242;2024-03-17T11:07:59;10.60;99.90
8261;DHT22;64115;50.170;8.242;2024-03-17T11:10:34;10.80;99.90
8261;DHT22;64115;50.170;8.242;2024-03-17T11:13:01;10.80;99.90
8261;DHT22;64115;50.170;8.242;2024-03-17T11:20:35;11.10;99.90
8261;DHT22;64115;50.170;8.242;2024-03-17T11:23:01;11.20;99.90
8261;DHT22;64115;50.170;8.242;2024-03-17T11:27:59;11.60;99.90
8261;DHT22;64115;50.170;8.242;2024-03-17T11:39:06;12.20;99.90
8261;DHT22;64115;50.170;8.242;2024-03-17T11:47:05;12.30;99.90
8261;DHT22;64115;50.170;8.242;2024-03-17T11:49:41;12.30;99.90
8261;DHT22;64115;50.170;8.242;2024-03-17T11:52:13;12.40;99.90
8261;DHT22;64115;50.170;8.242;2024-03-17T11:54:41;12.20;99.90
8261;DHT22;64115;50.170;8.242;2024-03-17T11:57:09;12.20;99.90
8261;DHT22;64115;50.170;8.242;2024-03-17T11:59:38;12.20;99.90
8261;DHT22;64115;50.170;8.242;2024-03-17T12:04:45;12.20;99.90
8261;DHT22;64115;50.170;8.242;2024-03-17T12:07:16;12.10;99.90
8261;DHT22;64115;50.170;8.242;2024-03-17T12:09:43;12.00;99.90
8261;DHT22;64115;50.170;8.242;2024-03-17T12:12:19;12.10;99.90
8261;DHT22;64115;50.170;8.242;2024-03-17T12:14:45;12.30;99.90
8261;DHT22;64115;50.170;8.242;2024-03-17T12:17:12;12.40;99.90
8261;DHT22;64115;50.170;8.242;2024-03-17T12:19:39;12.50;99.90
8261;DHT22;64115;50.170;8.242;2024-03-17T12:22:06;12.60;99.90
8261;DHT22;64115;50.170;8.242;2024-03-17T12:24:33;12.80;99.90
8261;DHT22;64115;50.170;8.242;2024-03-17T12:27:00;13.00;99.90
8261;DHT22;64115;50.170;8.242;2024-03-17T12:29:35;13.00;99.90
8261;DHT22;64115;50.170;8.242;2024-03-17T12:34:45;13.20;99.90
8261;DHT22;64115;50.170;8.242;2024-03-17T12:39:44;13.20;99.90
8261;DHT22;64115;50.170;8.242;2024-03-17T12:42:11;13.10;99.90
8261;DHT22;64115;50.170;8.242;2024-03-17T12:44:40;13.20;99.90
8261;DHT22;64115;50.170;8.242;2024-03-17T12:47:31;13.20;99.90
8261;DHT22;64115;50.170;8.242;2024-03-17T12:49:58;13.20;99.90
8261;DHT22;64115;50.170;8.242;2024-03-17T12:52:31;13.40;99.90
8261;DHT22;64115;50.170;8.242;2024-03-17T12:55:00;13.50;99.90
8261;DHT22;64115;50.170;8.242;2024-03-17T12:57:46;13.60;99.90
8261;DHT22;64115;50.170;8.242;2024-03-17T13:00:30;13.60;99.90
8261;DHT22;64115;50.170;8.242;2024-03-17T13:02:57;13.60;99.90
8261;DHT22;64115;50.170;8.242;2024-03-17T13:05:22;13.50;99.90
8261;DHT22;64115;50.170;8.242;2024-03-17T13:07:49;13.10;99.90
8261;DHT22;64115;50.170;8.242;2024-03-17T13:10:19;12.80;99.90
8261;DHT22;64115;50.170;8.242;2024-03-17T13:12:46;12.60;99.90
8261;DHT22;64115;50.170;8.242;2024-03-17T13:15:17;12.50;99.90
8261;DHT22;64115;50.170;8.242;2024-03-17T13:17:44;12.40;99.90
8261;DHT22;64115;50.170;8.242;2024-03-17T13:20:14;12.30;99.90
8261;DHT22;64115;50.170;8.242;2024-03-17T13:22:41;12.00;99.90
8261;DHT22;64115;50.170;8.242;2024-03-17T13:25:26;11.90;99.90
8261;DHT22;64115;50.170;8.242;2024-03-17T13:27:55;11.80;99.90
8261;DHT22;64115;50.170;8.242;2024-03-17T13:30:22;11.80;99.90
8261;DHT22;64115;50.170;8.242;2024-03-17T13:32:49;12.00;99.90
8261;DHT22;64115;50.170;8.242;2024-03-17T13:35:22;12.10;99.90
8261;DHT22;64115;50.170;8.242;2024-03-17T13:37:49;12.30;99.90
8261;DHT22;64115;50.170;8.242;2024-03-17T13:40:19;12.40;99.90
8261;DHT22;64115;50.170;8.242;2024-03-17T13:42:52;12.50;99.90
8261;DHT22;64115;50.170;8.242;2024-03-17T13:45:20;12.40;99.90
8261;DHT22;64115;50.170;8.242;2024-03-17T13:47:49;12.40;99.90
8261;DHT22;64115;50.170;8.242;2024-03-17T13:50:15;12.60;99.90
8261;DHT22;64115;50.170;8.242;2024-03-17T13:52:41;12.60;99.90
8261;DHT22;64115;50.170;8.242;2024-03-17T13:55:17;12.30;99.90
8261;DHT22;64115;50.170;8.242;2024-03-17T13:57:49;12.00;99.90
8261;DHT22;64115;50.170;8.242;2024-03-17T14:00:15;11.70;99.90
8261;DHT22;64115;50.170;8.242;2024-03-17T14:02:44;11.60;99.90
8261;DHT22;64115;50.170;8.242;2024-03-17T14:05:15;11.30;99.90
8261;DHT22;64115;50.170;8.242;2024-03-17T14:07:42;11.10;99.90
8261;DHT22;64115;50.170;8.242;2024-03-17T14:10:09;11.00;99.90
8261;DHT22;64115;50.170;8.242;2024-03-17T14:12:35;11.20;99.90
8261;DHT22;64115;50.170;8.242;2024-03-17T14:15:03;11.40;99.90
8261;DHT22;64115;50.170;8.242;2024-03-17T14:17:30;11.60;99.90
8261;DHT22;64115;50.170;8.242;2024-03-17T14:19:56;11.70;99.90
8261;DHT22;64115;50.170;8.242;2024-03-17T14:22:21;11.80;99.90
8261;DHT22;64115;50.170;8.242;2024-03-17T14:24:47;11.80;99.90
8261;DHT22;64115;50.170;8.242;2024-03-17T14:27:13;11.80;99.90
8261;DHT22;64115;50.170;8.242;2024-03-17T14:29:39;11.90;99.90
8261;DHT22;64115;50.170;8.242;2024-03-17T14:32:04;12.10;99.90
8261;DHT22;64115;50.170;8.242;2024-03-17T14:34:30;12.20;99.90
8261;DHT22;64115;50.170;8.242;2024-03-17T14:37:02;12.00;99.90
8261;DHT22;64115;50.170;8.242;2024-03-17T14:39:30;11.80;99.90
8261;DHT22;64115;50.170;8.242;2024-03-17T14:41:56;11.70;99.90
8261;DHT22;64115;50.170;8.242;2024-03-17T14:44:23;11.60;99.90
8261;DHT22;64115;50.170;8.242;2024-03-17T14:46:49;11.40;99.90
8261;DHT22;64115;50.170;8.242;2024-03-17T14:49:17;11.10;99.90
8261;DHT22;64115;50.170;8.242;2024-03-17T14:51:42;11.30;99.90
8261;DHT22;64115;50.170;8.242;2024-03-17T14:54:08;11.40;99.90
8261;DHT22;64115;50.170;8.242;2024-03-17T14:56:35;11.40;99.90
8261;DHT22;64115;50.170;8.242;2024-03-17T14:59:00;11.30;99.90
8261;DHT22;64115;50.170;8.242;2024-03-17T15:01:26;11.30;99.90
8261;DHT22;64115;50.170;8.242;2024-03-17T15:03:55;11.30;99.90
8261;DHT22;64115;50.170;8.242;2024-03-17T15:06:21;11.30;99.90
8261;DHT22;64115;50.170;8.242;2024-03-17T15:08:46;11.40;99.90
8261;DHT22;64115;50.170;8.242;2024-03-17T15:11:12;11.50;99.90
8261;DHT22;64115;50.170;8.242;2024-03-17T15:13:37;11.60;99.90
8261;DHT22;64115;50.170;8.242;2024-03-17T15:16:03;11.80;99.90
8261;DHT22;64115;50.170;8.242;2024-03-17T15:18:31;11.90;99.90
8261;DHT22;64115;50.170;8.242;2024-03-17T15:20:56;11.90;99.90
8261;DHT22;64115;50.170;8.242;2024-03-17T15:23:22;11.80;99.90
8261;DHT22;64115;50.170;8.242;2024-03-17T15:26:02;11.30;99.90
8261;DHT22;64115;50.170;8.242;2024-03-17T15:28:42;10.90;99.90
8261;DHT22;64115;50.170;8.242;2024-03-17T15:31:11;11.00;99.90
8261;DHT22;64115;50.170;8.242;2024-03-17T15:33:37;11.20;99.90
8261;DHT22;64115;50.170;8.242;2024-03-17T15:36:07;11.30;99.90
8261;DHT22;64115;50.170;8.242;2024-03-17T15:38:34;11.30;99.90
8261;DHT22;64115;50.170;8.242;2024-03-17T15:41:02;11.00;99.90
8261;DHT22;64115;50.170;8.242;2024-03-17T15:43:34;11.00;99.90
8261;DHT22;64115;50.170;8.242;2024-03-17T15:46:01;11.10;99.90
8261;DHT22;64115;50.170;8.242;2024-03-17T15:48:27;11.10;99.90
8261;DHT22;64115;50.170;8.242;2024-03-17T15:50:57;10.90;99.90
8261;DHT22;64115;50.170;8.242;2024-03-17T15:53:23;10.70;99.90
8261;DHT22;64115;50.170;8.242;2024-03-17T15:55:56;10.60;99.90
8261;DHT22;64115;50.170;8.242;2024-03-17T15:58:26;10.60;99.90
8261;DHT22;64115;50.170;8.242;2024-03-17T16:00:53;10.30;99.90
8261;DHT22;64115;50.170;8.242;2024-03-17T16:03:19;10.00;99.90
8261;DHT22;64115;50.170;8.242;2024-03-17T16:05:52;10.00;99.90
8261;DHT22;64115;50.170;8.242;2024-03-17T16:08:19;9.90;99.90
8261;DHT22;64115;50.170;8.242;2024-03-17T16:10:51;9.70;99.90
8261;DHT22;64115;50.170;8.242;2024-03-17T16:13:17;9.60;99.90
8261;DHT22;64115;50.170;8.242;2024-03-17T16:15:46;9.70;99.90
8261;DHT22;64115;50.170;8.242;2024-03-17T16:18:13;9.60;99.90
8261;DHT22;64115;50.170;8.242;2024-03-17T16:23:15;9.50;99.90
8261;DHT22;64115;50.170;8.242;2024-03-17T16:25:42;9.50;99.90
8261;DHT22;64115;50.170;8.242;2024-03-17T16:28:09;9.40;99.90
8261;DHT22;64115;50.170;8.242;2024-03-17T16:30:36;9.30;99.90
8261;DHT22;64115;50.170;8.242;2024-03-17T16:33:03;9.30;99.90
8261;DHT22;64115;50.170;8.242;2024-03-17T16:35:29;9.30;99.90
8261;DHT22;64115;50.170;8.242;2024-03-17T16:37:55;9.20;99.90